createdAt,value
2018-01-31T01:52:20.957Z,98191.81
2018-01-31T01:53:02.104Z,98191.81
2018-01-31T01:54:05.526Z,98180.37
2018-01-31T01:55:08.459Z,98177.69
2018-01-31T01:56:11.479Z,98182.34
2018-01-31T01:57:14.370Z,98175.95
2018-01-31T01:58:17.287Z,98167.03
2018-01-31T01:59:20.186Z,98165.48
2018-01-31T02:00:23.588Z,98166.64
2018-01-31T02:01:26.516Z,98165.09
2018-01-31T02:02:29.428Z,98159.86
2018-01-31T02:03:32.331Z,98156.58
2018-01-31T02:04:35.268Z,98147.45
2018-01-31T02:05:38.216Z,98156.17
2018-01-31T02:06:41.499Z,98156.94
2018-01-31T02:07:45.596Z,98150.55
2018-01-31T02:08:48.526Z,98147.45
2018-01-31T02:09:51.475Z,98138.15
2018-01-31T02:10:54.396Z,98136.80
2018-01-31T02:11:57.341Z,98138.73
2018-01-31T02:13:00.755Z,98135.22
2018-01-31T02:14:03.688Z,98128.44
2018-01-31T02:15:06.595Z,98127.11
2018-01-31T02:16:09.503Z,98123.23
2018-01-31T02:17:12.438Z,98125.95
2018-01-31T02:18:15.374Z,98120.69
2018-01-31T02:19:18.642Z,98120.48
2018-01-31T02:20:21.574Z,98116.03
2018-01-31T02:21:24.486Z,98111.58
2018-01-31T02:22:27.418Z,98110.80
2018-01-31T02:23:30.365Z,98109.64
2018-01-31T02:24:33.282Z,98104.80
2018-01-31T02:25:36.640Z,98102.00
2018-01-31T02:26:40.124Z,98102.42
2018-01-31T02:27:43.007Z,98098.55
2018-01-31T02:28:45.861Z,98096.03
2018-01-31T02:29:48.878Z,98097.00
2018-01-31T02:30:51.791Z,98096.80
2018-01-31T02:31:55.126Z,98095.06
2018-01-31T02:32:58.053Z,98093.52
2018-01-31T02:34:03.641Z,98085.17
2018-01-31T02:35:06.620Z,98089.83
2018-01-31T02:36:09.538Z,98083.62
2018-01-31T02:37:12.456Z,98083.44
2018-01-31T02:38:15.896Z,98080.53
2018-01-31T02:39:18.839Z,98075.92
2018-01-31T02:40:21.778Z,98069.29
2018-01-31T02:41:24.733Z,98047.92
2018-01-31T02:42:27.709Z,98064.00
2018-01-31T02:43:30.669Z,98066.72
2018-01-31T02:44:33.922Z,98060.17
2018-01-31T02:45:36.886Z,98056.88
2018-01-31T02:46:39.828Z,98054.32
2018-01-31T02:47:42.797Z,98057.45
2018-01-31T02:48:45.761Z,98057.66
2018-01-31T02:49:48.744Z,98049.08
2018-01-31T02:50:52.200Z,98043.26
2018-01-31T02:51:55.198Z,98043.25
2018-01-31T02:52:58.147Z,98042.84
2018-01-31T02:54:01.121Z,98035.64
2018-01-31T02:55:04.098Z,98031.97
2018-01-31T02:56:07.117Z,98037.61
2018-01-31T02:57:10.437Z,98033.15
2018-01-31T02:58:13.377Z,98032.56
2018-01-31T02:59:16.369Z,98024.81
2018-01-31T03:00:19.328Z,98020.92
2018-01-31T03:01:22.317Z,98013.29
2018-01-31T03:02:25.233Z,98010.39
2018-01-31T03:03:28.177Z,98013.14
2018-01-31T03:04:31.217Z,98010.77
2018-01-31T03:05:34.201Z,98003.45
2018-01-31T03:06:37.141Z,97999.56
2018-01-31T03:07:40.096Z,97994.34
2018-01-31T03:08:43.480Z,97999.59
2018-01-31T03:09:46.464Z,97986.78
2018-01-31T03:10:49.405Z,97992.34
2018-01-31T03:11:52.411Z,97990.52
2018-01-31T03:12:55.353Z,97988.75
2018-01-31T03:13:58.308Z,97986.23
2018-01-31T03:15:01.838Z,97969.55
2018-01-31T03:16:04.879Z,97987.17
2018-01-31T03:17:07.882Z,97981.30
2018-01-31T03:18:10.830Z,97973.13
2018-01-31T03:19:13.887Z,97971.19
2018-01-31T03:20:16.813Z,97972.74
2018-01-31T03:21:20.299Z,97974.48
2018-01-31T03:22:23.249Z,97959.73
2018-01-31T03:23:26.292Z,97969.45
2018-01-31T03:24:29.245Z,97960.90
2018-01-31T03:25:32.222Z,97972.34
2018-01-31T03:26:35.237Z,97965.91
2018-01-31T03:27:38.435Z,97956.02
2018-01-31T03:28:41.302Z,97949.83
2018-01-31T03:29:44.198Z,97959.73
2018-01-31T03:30:47.072Z,97958.58
2018-01-31T03:31:49.919Z,97943.44
2018-01-31T03:32:52.823Z,97959.92
2018-01-31T03:33:56.075Z,97968.25
2018-01-31T03:34:58.956Z,97944.70
2018-01-31T03:36:01.914Z,97947.60
2018-01-31T03:37:04.793Z,97949.55
2018-01-31T03:38:07.721Z,97947.41
2018-01-31T03:39:10.575Z,97952.27
2018-01-31T03:40:13.965Z,97936.90
2018-01-31T03:41:16.987Z,97954.59
2018-01-31T03:42:19.967Z,97940.63
2018-01-31T03:43:22.931Z,97943.33
2018-01-31T03:44:25.876Z,97937.09
2018-01-31T03:45:28.722Z,97945.08
2018-01-31T03:46:32.074Z,97933.81
2018-01-31T03:47:35.029Z,97940.00
2018-01-31T03:48:37.985Z,97918.66
2018-01-31T03:49:40.967Z,97918.27
2018-01-31T03:50:43.941Z,97916.14
2018-01-31T03:51:46.909Z,97920.81
2018-01-31T03:52:50.314Z,97934.77
2018-01-31T03:53:53.308Z,97916.70
2018-01-31T03:54:56.224Z,97919.61
2018-01-31T03:55:59.522Z,97917.66
2018-01-31T03:57:02.427Z,97920.91
2018-01-31T03:58:05.317Z,97904.59
2018-01-31T03:59:08.564Z,97905.19
2018-01-31T04:00:11.542Z,97896.10
2018-01-31T04:01:14.513Z,97898.25
2018-01-31T04:02:17.575Z,97903.44
2018-01-31T04:03:20.515Z,97889.86
2018-01-31T04:04:23.448Z,97881.16
2018-01-31T04:05:26.818Z,97884.85
2018-01-31T04:06:29.800Z,97895.52
2018-01-31T04:07:32.810Z,97890.23
2018-01-31T04:08:35.767Z,97902.84
2018-01-31T04:09:38.732Z,97895.63
2018-01-31T04:10:41.677Z,97883.58
2018-01-31T04:11:44.653Z,97887.25
2018-01-31T04:12:47.597Z,97882.22
2018-01-31T04:13:50.570Z,97879.31
2018-01-31T04:14:53.571Z,97873.67
2018-01-31T04:15:56.503Z,97871.14
2018-01-31T04:16:59.868Z,97865.45
2018-01-31T04:18:02.838Z,97869.70
2018-01-31T04:19:05.842Z,97880.39
2018-01-31T04:20:08.780Z,97866.47
2018-01-31T04:21:11.731Z,97870.14
2018-01-31T04:22:14.669Z,97860.97
2018-01-31T04:23:17.939Z,97874.36
2018-01-31T04:24:20.965Z,97861.34
2018-01-31T04:25:23.915Z,97870.83
2018-01-31T04:26:26.836Z,97851.39
2018-01-31T04:27:29.778Z,97848.27
2018-01-31T04:28:32.713Z,97862.23
2018-01-31T04:29:36.042Z,97862.41
2018-01-31T04:30:39.068Z,97850.13
2018-01-31T04:31:42.061Z,97858.23
2018-01-31T04:32:44.998Z,97852.97
2018-01-31T04:33:47.938Z,97858.97
2018-01-31T04:34:50.814Z,97845.39
2018-01-31T04:35:54.154Z,97838.97
2018-01-31T04:36:57.046Z,97844.61
2018-01-31T04:38:00.007Z,97838.38
2018-01-31T04:39:03.114Z,97847.91
2018-01-31T04:40:06.082Z,97827.48
2018-01-31T04:41:09.086Z,97834.09
2018-01-31T04:42:12.022Z,97817.62
2018-01-31T04:43:15.043Z,97821.11
2018-01-31T04:44:18.010Z,97826.00
2018-01-31T04:45:21.014Z,97832.02
2018-01-31T04:46:23.974Z,97833.16
2018-01-31T04:47:27.306Z,97812.87
2018-01-31T04:48:30.314Z,97835.20
2018-01-31T04:49:33.257Z,97825.88
2018-01-31T04:50:36.297Z,97829.00
2018-01-31T04:51:39.280Z,97822.09
2018-01-31T04:52:42.230Z,97823.23
2018-01-31T04:53:45.617Z,97820.45
2018-01-31T04:54:48.588Z,97811.48
2018-01-31T04:55:51.502Z,97829.52
2018-01-31T04:56:54.366Z,97814.70
2018-01-31T04:57:57.246Z,97800.33
2018-01-31T04:59:00.132Z,97808.16
2018-01-31T05:00:03.128Z,97802.73
2018-01-31T05:01:06.060Z,97801.75
2018-01-31T05:02:09.017Z,97815.33
2018-01-31T05:03:12.010Z,97804.72
2018-01-31T05:04:14.919Z,97806.83
2018-01-31T05:05:18.160Z,97803.03
2018-01-31T05:06:21.117Z,97817.02
2018-01-31T05:07:24.065Z,97813.06
2018-01-31T05:08:27.017Z,97802.75
2018-01-31T05:09:30.037Z,97797.54
2018-01-31T05:10:33.048Z,97793.72
2018-01-31T05:11:36.284Z,97780.66
2018-01-31T05:12:39.242Z,97789.63
2018-01-31T05:13:42.197Z,97790.22
2018-01-31T05:14:45.149Z,97785.73
2018-01-31T05:15:48.117Z,97788.00
2018-01-31T05:16:51.072Z,97784.92
2018-01-31T05:17:54.312Z,97789.25
2018-01-31T05:18:57.289Z,97776.81
2018-01-31T05:20:00.253Z,97786.33
2018-01-31T05:21:03.211Z,97761.67
2018-01-31T05:22:06.215Z,97783.77
2018-01-31T05:23:09.196Z,97765.30
2018-01-31T05:24:12.214Z,97777.89
2018-01-31T05:25:15.167Z,97776.17
2018-01-31T05:26:18.135Z,97758.42
2018-01-31T05:27:21.075Z,97762.12
2018-01-31T05:28:24.121Z,97775.17
2018-01-31T05:29:27.061Z,97764.81
2018-01-31T05:30:30.457Z,97772.36
2018-01-31T05:31:33.494Z,97786.96
2018-01-31T05:32:36.832Z,97764.25
2018-01-31T05:33:39.792Z,97754.71
2018-01-31T05:34:42.818Z,97763.30
2018-01-31T05:35:45.810Z,97754.16
2018-01-31T05:36:49.113Z,97764.23
2018-01-31T05:37:52.124Z,97757.20
2018-01-31T05:38:55.139Z,97749.66
2018-01-31T05:39:58.206Z,97765.02
2018-01-31T05:41:01.247Z,97735.27
2018-01-31T05:42:04.244Z,97736.59
2018-01-31T05:43:07.590Z,97750.22
2018-01-31T05:44:10.532Z,97753.33
2018-01-31T05:45:13.931Z,97744.37
2018-01-31T05:46:16.878Z,97743.02
2018-01-31T05:47:19.851Z,97746.34
2018-01-31T05:48:22.816Z,97752.13
2018-01-31T05:49:26.132Z,97721.20
2018-01-31T05:50:29.122Z,97740.40
2018-01-31T05:51:32.104Z,97725.62
2018-01-31T05:52:35.099Z,97748.20
2018-01-31T05:53:38.058Z,97727.98
2018-01-31T05:54:41.044Z,97733.01
2018-01-31T05:55:44.247Z,97739.97
2018-01-31T05:56:47.226Z,97711.99
2018-01-31T05:57:50.195Z,97708.30
2018-01-31T05:58:53.167Z,97715.09
2018-01-31T05:59:56.108Z,97705.19
2018-01-31T06:00:59.070Z,97725.23
2018-01-31T06:02:02.387Z,97712.20
2018-01-31T06:03:05.349Z,97715.69
2018-01-31T06:04:08.373Z,97704.65
2018-01-31T06:05:11.365Z,97721.16
2018-01-31T06:06:14.363Z,97716.07
2018-01-31T06:07:17.388Z,97715.48
2018-01-31T06:08:20.640Z,97703.62
2018-01-31T06:09:23.629Z,97717.05
2018-01-31T06:10:26.534Z,97689.46
2018-01-31T06:11:29.390Z,97715.30
2018-01-31T06:12:32.314Z,97705.34
2018-01-31T06:13:35.179Z,97709.59
2018-01-31T06:14:38.394Z,97713.79
2018-01-31T06:15:41.262Z,97708.73
2018-01-31T06:16:44.225Z,97689.56
2018-01-31T06:17:47.153Z,97688.92
2018-01-31T06:18:50.183Z,97700.75
2018-01-31T06:19:53.201Z,97683.98
2018-01-31T06:20:56.546Z,97691.36
2018-01-31T06:21:59.625Z,97693.48
2018-01-31T06:23:02.755Z,97692.92
2018-01-31T06:24:05.841Z,97698.19
2018-01-31T06:25:08.848Z,97672.34
2018-01-31T06:26:11.794Z,97695.28
2018-01-31T06:27:15.022Z,97681.70
2018-01-31T06:28:18.005Z,97668.46
2018-01-31T06:29:20.902Z,97672.36
2018-01-31T06:30:23.776Z,97673.16
2018-01-31T06:31:26.646Z,97672.95
2018-01-31T06:32:29.493Z,97669.64
2018-01-31T06:33:32.790Z,97671.98
2018-01-31T06:34:35.651Z,97683.73
2018-01-31T06:35:38.649Z,97670.54
2018-01-31T06:36:41.679Z,97684.55
2018-01-31T06:37:44.546Z,97664.33
2018-01-31T06:38:48.203Z,97661.20
2018-01-31T06:39:51.560Z,97660.04
2018-01-31T06:40:54.521Z,97659.12
2018-01-31T06:41:57.465Z,97659.53
2018-01-31T06:43:00.484Z,97656.61
2018-01-31T06:44:03.418Z,97653.32
2018-01-31T06:45:06.349Z,97656.05
2018-01-31T06:46:09.619Z,97659.77
2018-01-31T06:47:12.603Z,97642.34
2018-01-31T06:48:15.573Z,97643.73
2018-01-31T06:49:18.576Z,97676.76
2018-01-31T06:50:21.618Z,97658.58
2018-01-31T06:51:24.635Z,97648.23
2018-01-31T06:52:28.002Z,97656.75
2018-01-31T06:53:30.980Z,97633.98
2018-01-31T06:54:33.941Z,97655.75
2018-01-31T06:55:36.921Z,97657.91
2018-01-31T06:56:39.906Z,97631.11
2018-01-31T06:57:42.895Z,97642.97
2018-01-31T06:58:45.857Z,97639.99
2018-01-31T06:59:48.821Z,97644.07
2018-01-31T07:00:51.895Z,97632.42
2018-01-31T07:01:54.854Z,97645.79
2018-01-31T07:02:57.886Z,97611.36
2018-01-31T07:04:00.931Z,97622.07
2018-01-31T07:05:03.921Z,97629.52
2018-01-31T07:06:07.196Z,97621.36
2018-01-31T07:07:10.133Z,97640.78
2018-01-31T07:08:13.142Z,97636.88
2018-01-31T07:09:16.175Z,97612.84
2018-01-31T07:10:19.471Z,97624.88
2018-01-31T07:11:22.346Z,97625.11
2018-01-31T07:12:25.206Z,97634.22
2018-01-31T07:13:28.128Z,97606.22
2018-01-31T07:14:31.013Z,97616.56
2018-01-31T07:15:33.925Z,97622.21
2018-01-31T07:16:37.075Z,97624.31
2018-01-31T07:17:39.931Z,97618.31
2018-01-31T07:18:42.838Z,97630.73
2018-01-31T07:19:45.698Z,97609.52
2018-01-31T07:20:48.576Z,97614.23
2018-01-31T07:21:51.535Z,97636.94
2018-01-31T07:22:54.863Z,97615.00
2018-01-31T07:23:57.807Z,97599.63
2018-01-31T07:25:00.822Z,97611.66
2018-01-31T07:26:03.943Z,97586.61
2018-01-31T07:27:06.984Z,97598.47
2018-01-31T07:28:09.958Z,97607.81
2018-01-31T07:29:13.451Z,97613.52
2018-01-31T07:30:16.471Z,97606.34
2018-01-31T07:31:19.547Z,97593.11
2018-01-31T07:32:22.592Z,97593.55
2018-01-31T07:33:25.644Z,97606.59
2018-01-31T07:34:28.651Z,97573.00
2018-01-31T07:35:31.955Z,97594.56
2018-01-31T07:36:34.945Z,97588.59
2018-01-31T07:37:37.930Z,97584.27
2018-01-31T07:38:41.606Z,97602.55
2018-01-31T07:39:44.673Z,97612.05
2018-01-31T07:40:47.644Z,97577.41
2018-01-31T07:41:51.150Z,97580.78
2018-01-31T07:42:54.199Z,97585.28
2018-01-31T07:43:57.152Z,97561.37
2018-01-31T07:45:00.149Z,97581.76
2018-01-31T07:46:03.147Z,97573.98
2018-01-31T07:47:06.426Z,97601.25
2018-01-31T07:48:09.385Z,97602.05
2018-01-31T07:49:12.359Z,97562.95
2018-01-31T07:50:15.544Z,97568.24
2018-01-31T07:51:19.086Z,97565.58
2018-01-31T07:52:22.064Z,97559.55
2018-01-31T07:53:25.377Z,97558.58
2018-01-31T07:54:28.357Z,97577.94
2018-01-31T07:55:31.354Z,97561.03
2018-01-31T07:56:34.350Z,97549.31
2018-01-31T07:57:37.365Z,97546.98
2018-01-31T07:58:40.314Z,97526.37
2018-01-31T07:59:43.597Z,97609.77
2018-01-31T08:00:46.636Z,97540.77
2018-01-31T08:01:49.618Z,97571.11
2018-01-31T08:02:52.741Z,97570.75
2018-01-31T08:03:55.749Z,97553.84
2018-01-31T08:04:58.731Z,97558.87
2018-01-31T08:06:02.234Z,97544.70
2018-01-31T08:07:05.228Z,97546.45
2018-01-31T08:08:08.390Z,97552.22
2018-01-31T08:09:11.409Z,97546.19
2018-01-31T08:10:14.959Z,97547.54
2018-01-31T08:11:18.108Z,97564.45
2018-01-31T08:12:21.544Z,97537.08
2018-01-31T08:13:24.506Z,97495.56
2018-01-31T08:14:27.461Z,97527.23
2018-01-31T08:15:30.551Z,97528.97
2018-01-31T08:16:33.581Z,97537.20
2018-01-31T08:17:36.576Z,97567.83
2018-01-31T08:18:39.929Z,97535.74
2018-01-31T08:19:43.029Z,97537.25
2018-01-31T08:20:46.037Z,97536.27
2018-01-31T08:21:48.959Z,97528.64
2018-01-31T08:22:51.940Z,97543.78
2018-01-31T08:23:54.901Z,97494.05
2018-01-31T08:24:58.253Z,97546.41
2018-01-31T08:26:01.590Z,97578.33
2018-01-31T08:27:04.611Z,97557.80
2018-01-31T08:28:07.553Z,97529.59
2018-01-31T08:29:10.603Z,97547.42
2018-01-31T08:30:13.604Z,97523.46
2018-01-31T08:31:16.931Z,97540.97
2018-01-31T08:32:19.916Z,97518.02
2018-01-31T08:33:22.938Z,97539.61
2018-01-31T08:34:25.918Z,97522.45
2018-01-31T08:35:28.912Z,97524.20
2018-01-31T08:36:31.890Z,97522.31
2018-01-31T08:37:35.149Z,97520.80
2018-01-31T08:38:38.090Z,97518.50
2018-01-31T08:39:41.063Z,97515.81
2018-01-31T08:40:44.090Z,97502.27
2018-01-31T08:41:47.072Z,97515.07
2018-01-31T08:42:50.163Z,97492.50
2018-01-31T08:43:53.458Z,97512.19
2018-01-31T08:44:56.372Z,97518.58
2018-01-31T08:45:59.438Z,97528.68
2018-01-31T08:47:02.546Z,97464.66
2018-01-31T08:48:05.508Z,97518.20
2018-01-31T08:49:08.501Z,97512.73
2018-01-31T08:50:11.832Z,97512.48
2018-01-31T08:51:14.783Z,97515.34
2018-01-31T08:52:17.754Z,97481.14
2018-01-31T08:53:20.746Z,97494.79
2018-01-31T08:54:24.030Z,97499.88
2018-01-31T08:55:26.995Z,97486.90
2018-01-31T08:56:30.284Z,97482.81
2018-01-31T08:57:33.225Z,97486.94
2018-01-31T08:58:36.323Z,97461.35
2018-01-31T08:59:40.215Z,97486.16
2018-01-31T09:00:43.155Z,97477.52
2018-01-31T09:01:46.099Z,97468.33
2018-01-31T09:02:49.068Z,97474.16
2018-01-31T09:03:52.121Z,97457.92
2018-01-31T09:04:55.104Z,97466.48
2018-01-31T09:05:58.072Z,97460.27
2018-01-31T09:07:01.064Z,97467.28
2018-01-31T09:08:04.361Z,97486.37
2018-01-31T09:09:07.322Z,97500.83
2018-01-31T09:10:10.350Z,97470.84
2018-01-31T09:11:13.708Z,97473.49
2018-01-31T09:12:16.643Z,97466.55
2018-01-31T09:13:19.743Z,97467.39
2018-01-31T09:14:23.214Z,97473.29
2018-01-31T09:15:26.323Z,97486.48
2018-01-31T09:16:29.369Z,97446.90
2018-01-31T09:17:32.375Z,97463.44
2018-01-31T09:18:36.301Z,97466.16
2018-01-31T09:19:39.351Z,97471.61
2018-01-31T09:20:42.313Z,97469.73
2018-01-31T09:21:45.420Z,97449.06
2018-01-31T09:22:48.409Z,97443.20
2018-01-31T09:23:51.426Z,97458.00
2018-01-31T09:24:54.424Z,97489.06
2018-01-31T09:25:57.417Z,97423.33
2018-01-31T09:27:00.662Z,97433.45
2018-01-31T09:28:03.655Z,97441.06
2018-01-31T09:29:06.639Z,97440.30
2018-01-31T09:30:09.648Z,97410.95
2018-01-31T09:31:12.619Z,97442.84
2018-01-31T09:32:15.598Z,97454.69
2018-01-31T09:33:18.934Z,97464.21
2018-01-31T09:34:21.912Z,97403.20
2018-01-31T09:35:24.900Z,97453.70
2018-01-31T09:36:27.926Z,97411.75
2018-01-31T09:37:31.141Z,97439.53
2018-01-31T09:38:34.130Z,97442.42
2018-01-31T09:39:37.517Z,97449.62
2018-01-31T09:40:40.499Z,97440.23
2018-01-31T09:41:43.488Z,97420.13
2018-01-31T09:42:46.600Z,97444.45
2018-01-31T09:43:49.602Z,97429.70
2018-01-31T09:44:52.492Z,97430.71
2018-01-31T09:45:55.953Z,97419.47
2018-01-31T09:46:58.943Z,97421.01
2018-01-31T09:48:01.974Z,97409.52
2018-01-31T09:49:04.948Z,97390.20
2018-01-31T09:50:07.918Z,97404.09
2018-01-31T09:51:10.977Z,97411.90
2018-01-31T09:52:17.807Z,97419.02
2018-01-31T09:53:18.497Z,97406.70
2018-01-31T09:54:20.598Z,97399.66
2018-01-31T09:55:23.572Z,97400.91
2018-01-31T09:56:26.615Z,97391.06
2018-01-31T09:57:29.597Z,97404.30
2018-01-31T09:58:32.913Z,97414.09
2018-01-31T09:59:35.913Z,97387.22
2018-01-31T10:00:38.893Z,97388.41
2018-01-31T10:01:41.852Z,97414.86
2018-01-31T10:02:44.849Z,97389.65
2018-01-31T10:03:47.878Z,97380.27
2018-01-31T10:04:51.187Z,97386.86
2018-01-31T10:05:54.199Z,97375.20
2018-01-31T10:06:57.181Z,97375.09
2018-01-31T10:08:00.249Z,97349.44
2018-01-31T10:09:03.927Z,97383.75
2018-01-31T10:10:06.879Z,97352.95
2018-01-31T10:11:10.206Z,97355.13
2018-01-31T10:12:13.199Z,97343.47
2018-01-31T10:13:16.162Z,97384.31
2018-01-31T10:14:19.163Z,97388.14
2018-01-31T10:15:22.177Z,97383.22
2018-01-31T10:16:25.232Z,97369.05
2018-01-31T10:17:28.726Z,97392.75
2018-01-31T10:18:31.819Z,97363.52
2018-01-31T10:19:34.908Z,97381.43
2018-01-31T10:20:38.165Z,97381.68
2018-01-31T10:21:41.417Z,97361.44
2018-01-31T10:22:45.192Z,97365.55
2018-01-31T10:23:52.849Z,97345.17
2018-01-31T10:24:56.662Z,97341.89
2018-01-31T10:26:01.337Z,97319.65
2018-01-31T10:27:04.750Z,97364.28
2018-01-31T10:28:07.817Z,97355.05
2018-01-31T10:29:10.812Z,97364.62
2018-01-31T10:30:14.155Z,97317.98
2018-01-31T10:31:17.188Z,97335.30
2018-01-31T10:32:20.172Z,97325.94
2018-01-31T10:33:23.623Z,97346.23
2018-01-31T10:34:26.763Z,97329.27
2018-01-31T10:35:29.738Z,97313.09
2018-01-31T10:36:33.412Z,97331.81
2018-01-31T10:37:36.478Z,97334.09
2018-01-31T10:38:39.512Z,97344.25
2018-01-31T10:39:42.493Z,97350.50
2018-01-31T10:40:45.603Z,97307.11
2018-01-31T10:41:48.643Z,97321.45
2018-01-31T10:42:52.591Z,97315.49
2018-01-31T10:43:55.684Z,97330.47
2018-01-31T10:44:58.650Z,97350.50
2018-01-31T10:46:01.754Z,97318.77
2018-01-31T10:47:04.802Z,97326.42
2018-01-31T10:48:07.857Z,97295.08
2018-01-31T10:49:11.429Z,97294.56
2018-01-31T10:50:14.749Z,97286.35
2018-01-31T10:51:17.897Z,97323.56
2018-01-31T10:52:21.016Z,97303.66
2018-01-31T10:53:24.221Z,97334.17
2018-01-31T10:57:28.597Z,97287.58
2018-01-31T10:57:37.089Z,97259.39
2018-01-31T10:58:40.121Z,97262.62
2018-01-31T10:59:43.303Z,97281.00
2018-01-31T11:00:46.484Z,97273.09
2018-01-31T11:01:51.076Z,97270.58
2018-01-31T11:02:53.204Z,97271.55
2018-01-31T11:03:56.483Z,97223.48
2018-01-31T11:04:59.863Z,97256.24
2018-01-31T11:06:03.114Z,97242.12
2018-01-31T11:07:06.188Z,97249.36
2018-01-31T11:08:09.621Z,97265.11
2018-01-31T11:09:12.670Z,97258.13
2018-01-31T11:10:15.743Z,97226.63
2018-01-31T11:11:18.703Z,97220.13
2018-01-31T11:12:21.749Z,97243.48
2018-01-31T11:13:24.789Z,97220.81
2018-01-31T11:14:29.241Z,97255.89
2018-01-31T11:15:32.386Z,97254.06
2018-01-31T11:16:35.573Z,97267.94
2018-01-31T11:17:38.576Z,97205.28
2018-01-31T11:18:41.610Z,97211.70
2018-01-31T11:19:44.653Z,97228.80
2018-01-31T11:20:48.322Z,97235.14
2018-01-31T11:21:51.272Z,97217.23
2018-01-31T11:22:54.353Z,97215.32
2018-01-31T11:23:57.508Z,97196.37
2018-01-31T11:25:00.485Z,97208.03
2018-01-31T11:26:03.365Z,97213.01
2018-01-31T11:27:06.764Z,97176.62
2018-01-31T11:28:09.806Z,97186.84
2018-01-31T11:29:12.836Z,97194.73
2018-01-31T11:30:15.884Z,97203.77
2018-01-31T11:31:18.834Z,97191.28
2018-01-31T11:32:21.787Z,97188.56
2018-01-31T11:33:25.205Z,97175.22
2018-01-31T11:34:28.137Z,97198.82
2018-01-31T11:36:50.282Z,97185.12
2018-01-31T11:37:53.407Z,97162.92
2018-01-31T11:38:56.323Z,97172.41
2018-01-31T11:39:59.727Z,97191.66
2018-01-31T11:41:03.761Z,97199.49
2018-01-31T11:42:06.755Z,97188.06
2018-01-31T11:43:09.706Z,97174.86
2018-01-31T11:44:12.819Z,97168.59
2018-01-31T11:45:16.518Z,97174.92
2018-01-31T11:46:20.440Z,97176.80
2018-01-31T11:47:23.632Z,97176.58
2018-01-31T11:48:27.227Z,97167.33
2018-01-31T11:49:30.713Z,97139.46
2018-01-31T11:50:34.234Z,97140.93
2018-01-31T11:51:38.840Z,97149.77
2018-01-31T11:52:42.720Z,97150.89
2018-01-31T11:53:47.370Z,97134.06
2018-01-31T11:54:50.865Z,97160.61
2018-01-31T11:55:54.002Z,97156.52
2018-01-31T11:56:57.290Z,97137.48
2018-01-31T11:58:00.858Z,97147.09
2018-01-31T11:59:04.425Z,97140.41
2018-01-31T12:00:07.997Z,97136.54
2018-01-31T12:01:11.156Z,97145.85
2018-01-31T12:02:14.317Z,97141.13
2018-01-31T12:03:17.452Z,97132.03
2018-01-31T12:04:20.423Z,97118.49
2018-01-31T12:05:23.939Z,97147.68
2018-01-31T12:06:27.082Z,97106.55
2018-01-31T12:07:30.446Z,97125.22
2018-01-31T12:08:33.881Z,97126.41
2018-01-31T12:09:37.134Z,97115.30
2018-01-31T12:10:40.174Z,97106.84
2018-01-31T12:11:43.628Z,97113.81
2018-01-31T12:12:46.656Z,97116.40
2018-01-31T12:13:49.688Z,97131.16
2018-01-31T12:14:52.692Z,97105.09
2018-01-31T12:15:55.691Z,97102.27
2018-01-31T12:16:58.646Z,97078.86
2018-01-31T12:18:02.096Z,97110.33
2018-01-31T12:19:07.953Z,97081.96
2018-01-31T12:20:11.365Z,97062.42
2018-01-31T12:21:14.393Z,97092.24
2018-01-31T12:22:17.387Z,97076.44
2018-01-31T12:23:20.421Z,97098.53
2018-01-31T12:24:24.806Z,97101.29
2018-01-31T12:25:27.782Z,97076.23
2018-01-31T12:26:30.773Z,97099.23
2018-01-31T12:27:33.795Z,97089.80
2018-01-31T12:28:36.873Z,97034.43
2018-01-31T12:29:39.889Z,97066.40
2018-01-31T12:30:42.871Z,97059.69
2018-01-31T12:31:45.837Z,97084.52
2018-01-31T12:32:48.787Z,97061.04
2018-01-31T12:33:51.759Z,97069.53
2018-01-31T12:34:54.731Z,97102.00
2018-01-31T12:35:57.685Z,97051.61
2018-01-31T12:37:00.666Z,97084.98
2018-01-31T12:38:04.262Z,97057.98
2018-01-31T12:39:07.335Z,97055.30
2018-01-31T12:40:10.316Z,97059.13
2018-01-31T12:41:13.725Z,97054.62
2018-01-31T12:42:16.693Z,97063.80
2018-01-31T12:43:19.733Z,97050.98
2018-01-31T12:44:22.779Z,97048.19
2018-01-31T12:45:25.975Z,97074.00
2018-01-31T12:46:28.956Z,97047.42
2018-01-31T12:47:32.487Z,97040.84
2018-01-31T12:48:35.476Z,97056.75
2018-01-31T12:49:38.436Z,97009.86
2018-01-31T12:50:41.469Z,97021.34
2018-01-31T12:51:44.452Z,97031.25
2018-01-31T12:52:48.073Z,97047.27
2018-01-31T12:53:51.344Z,97034.70
2018-01-31T12:54:54.380Z,97031.00
2018-01-31T12:55:57.348Z,97024.80
2018-01-31T12:57:00.321Z,97021.20
2018-01-31T12:58:03.275Z,97019.63
2018-01-31T12:59:06.227Z,97008.38
2018-01-31T13:00:09.935Z,97028.13
2018-01-31T13:01:13.026Z,97069.08
2018-01-31T13:02:16.606Z,97012.33
2018-01-31T13:03:19.638Z,97006.30
2018-01-31T13:04:22.706Z,97001.54
2018-01-31T13:05:25.677Z,96965.56
2018-01-31T13:06:28.612Z,96981.62
2018-01-31T13:07:31.679Z,97001.62
2018-01-31T13:08:34.704Z,96999.41
2018-01-31T13:09:37.921Z,96983.70
2018-01-31T13:10:41.221Z,96998.31
2018-01-31T13:11:44.374Z,96985.95
2018-01-31T13:12:47.401Z,97003.66
2018-01-31T13:13:50.355Z,96999.76
2018-01-31T13:14:53.362Z,96982.84
2018-01-31T13:15:56.339Z,96997.00
2018-01-31T13:16:59.254Z,97016.41
2018-01-31T13:18:02.293Z,96915.02
2018-01-31T13:19:05.173Z,96986.42
2018-01-31T13:20:08.142Z,96967.34
2018-01-31T13:21:11.117Z,96973.16
2018-01-31T13:22:14.468Z,96962.17
2018-01-31T13:23:17.505Z,96964.46
2018-01-31T13:24:20.457Z,96947.67
2018-01-31T13:25:23.469Z,96945.72
2018-01-31T13:26:26.497Z,96907.39
2018-01-31T13:27:29.660Z,96965.81
2018-01-31T13:28:37.260Z,96989.78
2018-01-31T13:29:40.257Z,96961.64
2018-01-31T13:30:43.311Z,96948.13
2018-01-31T13:31:46.349Z,96931.44
2018-01-31T13:32:53.246Z,96943.58
2018-01-31T13:33:56.223Z,96926.78
2018-01-31T13:34:59.452Z,96919.81
2018-01-31T13:36:02.791Z,96930.91
2018-01-31T13:37:05.993Z,96988.80
2018-01-31T13:38:12.855Z,96961.55
2018-01-31T13:39:15.806Z,96942.84
2018-01-31T13:40:18.863Z,96937.40
2018-01-31T13:41:22.245Z,96945.22
2018-01-31T13:42:29.105Z,96942.00
2018-01-31T13:43:32.104Z,96955.39
2018-01-31T13:44:35.064Z,96935.75
2018-01-31T13:45:38.093Z,96910.39
2018-01-31T13:46:40.964Z,96931.12
2018-01-31T13:47:43.964Z,96901.97
2018-01-31T13:48:46.997Z,96900.70
2018-01-31T13:49:50.038Z,96873.53
2018-01-31T13:50:53.025Z,96894.18
2018-01-31T13:51:55.993Z,96881.09
2018-01-31T13:52:59.405Z,96900.20
2018-01-31T13:54:02.385Z,96884.92
2018-01-31T13:55:05.368Z,96879.70
2018-01-31T13:56:08.355Z,96924.48
2018-01-31T13:57:11.321Z,96918.30
2018-01-31T13:58:15.054Z,96874.64
2018-01-31T13:59:18.056Z,96911.08
2018-01-31T14:00:21.202Z,96890.23
2018-01-31T14:01:24.111Z,96867.17
2018-01-31T14:02:27.773Z,96884.12
2018-01-31T14:03:30.730Z,96872.85
2018-01-31T14:04:34.053Z,96875.73
2018-01-31T14:05:37.055Z,96893.48
2018-01-31T14:06:40.009Z,96888.59
2018-01-31T14:07:42.999Z,96864.65
2018-01-31T14:08:45.971Z,96860.14
2018-01-31T14:09:48.958Z,96850.08
2018-01-31T14:10:52.474Z,96862.14
2018-01-31T14:11:55.485Z,96859.16
2018-01-31T14:12:58.481Z,96881.56
2018-01-31T14:14:01.470Z,96826.62
2018-01-31T14:15:04.626Z,96845.33
2018-01-31T14:16:07.632Z,96850.31